createdAt,value
2022-12-04T00:02:24.457Z,4.80
2022-12-04T00:05:10.342Z,4.70
2022-12-04T00:07:55.590Z,4.80
2022-12-04T00:10:44.225Z,4.70
2022-12-04T00:13:29.369Z,4.80
2022-12-04T00:16:20.386Z,4.80
2022-12-04T00:19:05.675Z,4.70
2022-12-04T00:21:51.164Z,4.80
2022-12-04T00:24:36.922Z,4.70
2022-12-04T00:27:22.097Z,4.70
2022-12-04T00:30:08.730Z,4.70
2022-12-04T00:32:54.042Z,4.70
2022-12-04T00:35:39.461Z,4.70
2022-12-04T00:38:25.558Z,4.70
2022-12-04T00:41:12.347Z,4.70
2022-12-04T00:43:58.358Z,4.70
2022-12-04T00:46:43.422Z,4.70
2022-12-04T00:49:28.762Z,4.70
2022-12-04T00:52:14.201Z,4.60
2022-12-04T00:54:59.556Z,4.60
2022-12-04T00:57:44.872Z,4.60
2022-12-04T01:00:30.832Z,4.60
2022-12-04T01:03:16.636Z,4.60
2022-12-04T01:06:02.925Z,4.60
2022-12-04T01:08:49.710Z,4.60
2022-12-04T01:11:34.936Z,4.60
2022-12-04T01:14:20.343Z,4.60
2022-12-04T01:17:05.777Z,4.50
2022-12-04T01:19:51.450Z,4.50
2022-12-04T01:22:36.622Z,4.50
2022-12-04T01:25:21.796Z,4.40
2022-12-04T01:28:07.266Z,4.40
2022-12-04T01:31:03.569Z,4.50
2022-12-04T01:33:49.982Z,4.50
2022-12-04T01:36:35.004Z,4.50
2022-12-04T01:39:20.553Z,4.50
2022-12-04T01:42:06.094Z,4.50
2022-12-04T01:45:33.673Z,4.50
2022-12-04T01:48:21.819Z,4.50
2022-12-04T01:51:30.455Z,4.40
2022-12-04T01:54:22.521Z,4.40
2022-12-04T01:57:14.134Z,4.30
2022-12-04T02:00:07.402Z,4.30
2022-12-04T02:02:52.467Z,4.30
2022-12-04T02:05:37.720Z,4.30
2022-12-04T02:08:23.454Z,4.30
2022-12-04T02:11:27.802Z,4.20
2022-12-04T02:14:51.044Z,4.30
2022-12-04T02:18:01.332Z,4.20
2022-12-04T02:21:10.234Z,4.20
2022-12-04T02:24:23.513Z,4.20
2022-12-04T02:27:30.657Z,4.20
2022-12-04T02:30:16.050Z,4.10
2022-12-04T02:33:07.230Z,4.10
2022-12-04T02:36:00.913Z,4.20
2022-12-04T02:38:57.357Z,4.10
2022-12-04T02:41:48.359Z,4.10
2022-12-04T02:45:02.471Z,4.10
2022-12-04T02:47:47.855Z,4.10
2022-12-04T02:50:37.554Z,4.10
2022-12-04T02:53:38.514Z,4.00
2022-12-04T02:56:30.046Z,4.00
2022-12-04T02:59:20.210Z,4.00
2022-12-04T03:02:18.367Z,3.90
2022-12-04T03:05:09.727Z,3.90
2022-12-04T03:07:59.634Z,3.90
2022-12-04T03:10:54.575Z,3.90
2022-12-04T03:13:48.790Z,3.90
2022-12-04T03:16:40.787Z,3.90
2022-12-04T03:19:34.513Z,3.90
2022-12-04T03:22:22.172Z,3.90
2022-12-04T03:25:08.669Z,3.90
2022-12-04T03:28:00.261Z,3.90
2022-12-04T03:30:54.101Z,3.90
2022-12-04T03:33:42.835Z,3.90
2022-12-04T03:36:34.735Z,3.90
2022-12-04T03:39:33.361Z,3.80
2022-12-04T03:42:23.075Z,3.80
2022-12-04T03:45:22.476Z,3.80
2022-12-04T03:48:22.691Z,3.80
2022-12-04T03:51:41.374Z,3.80
2022-12-04T03:54:37.337Z,3.80
2022-12-04T03:57:29.151Z,3.70
2022-12-04T04:00:17.915Z,3.70
2022-12-04T04:03:16.098Z,3.70
2022-12-04T04:06:19.151Z,3.60
2022-12-04T04:09:13.395Z,3.60
2022-12-04T04:12:06.754Z,3.60
2022-12-04T04:15:15.782Z,3.70
2022-12-04T04:18:20.780Z,3.60
2022-12-04T04:21:25.012Z,3.70
2022-12-04T04:24:26.594Z,3.60
2022-12-04T04:27:12.736Z,3.60
2022-12-04T04:29:58.629Z,3.60
2022-12-04T04:32:58.775Z,3.60
2022-12-04T04:35:59.376Z,3.60
2022-12-04T04:38:53.103Z,3.50
2022-12-04T04:41:54.117Z,3.50
2022-12-04T04:44:47.583Z,3.50
2022-12-04T04:47:40.826Z,3.50
2022-12-04T04:50:26.824Z,3.50
2022-12-04T04:53:28.338Z,3.50
2022-12-04T04:56:14.506Z,3.50
2022-12-04T04:58:59.560Z,3.40
2022-12-04T05:01:46.836Z,3.30
2022-12-04T05:04:32.276Z,3.20
2022-12-04T05:07:18.072Z,3.30
2022-12-04T05:10:03.581Z,3.30
2022-12-04T05:12:48.989Z,3.30
2022-12-04T05:15:34.223Z,3.40
2022-12-04T05:18:19.949Z,3.40
2022-12-04T05:21:18.287Z,3.40
2022-12-04T05:24:03.836Z,3.40
2022-12-04T05:26:49.037Z,3.40
2022-12-04T05:29:36.105Z,3.40
2022-12-04T05:32:22.339Z,3.40
2022-12-04T05:35:11.414Z,3.40
2022-12-04T05:37:57.096Z,3.40
2022-12-04T05:40:42.411Z,3.40
2022-12-04T05:43:28.380Z,3.40
2022-12-04T05:46:13.766Z,3.30
2022-12-04T05:48:59.114Z,3.30
2022-12-04T05:51:44.568Z,3.30
2022-12-04T05:54:29.803Z,3.30
2022-12-04T05:57:15.130Z,3.30
2022-12-04T06:00:00.482Z,3.30
2022-12-04T06:02:46.072Z,3.30
2022-12-04T06:05:32.617Z,3.30
2022-12-04T06:08:17.795Z,3.40
2022-12-04T06:11:10.642Z,3.30
2022-12-04T06:13:56.677Z,3.30
2022-12-04T06:16:45.757Z,3.30
2022-12-04T06:19:31.426Z,3.30
2022-12-04T06:22:16.839Z,3.30
2022-12-04T06:25:02.118Z,3.30
2022-12-04T06:27:47.559Z,3.30
2022-12-04T06:30:34.061Z,3.30
2022-12-04T06:33:19.225Z,3.30
2022-12-04T06:36:07.390Z,3.30
2022-12-04T06:38:54.938Z,3.30
2022-12-04T06:41:40.339Z,3.30
2022-12-04T06:44:25.795Z,3.30
2022-12-04T06:47:11.170Z,3.30
2022-12-04T06:49:56.667Z,3.30
2022-12-04T06:52:42.253Z,3.20
2022-12-04T06:55:27.481Z,3.20
2022-12-04T06:58:12.947Z,3.30
2022-12-04T07:00:58.811Z,3.20
2022-12-04T07:03:49.540Z,3.20
2022-12-04T07:06:38.880Z,3.20
2022-12-04T07:09:24.472Z,3.20
2022-12-04T07:12:09.810Z,3.20
2022-12-04T07:14:55.405Z,3.20
2022-12-04T07:17:40.567Z,3.20
2022-12-04T07:20:26.278Z,3.20
2022-12-04T07:23:11.634Z,3.20
2022-12-04T07:25:56.866Z,3.20
2022-12-04T07:28:42.379Z,3.20
2022-12-04T07:31:29.178Z,3.20
2022-12-04T07:34:14.664Z,3.20
2022-12-04T07:37:00.138Z,3.20
2022-12-04T07:39:45.619Z,3.20
2022-12-04T07:42:31.173Z,3.20
2022-12-04T07:45:16.715Z,3.20
2022-12-04T07:48:02.195Z,3.30
2022-12-04T07:50:47.850Z,3.30
2022-12-04T07:53:35.373Z,3.20
2022-12-04T07:56:21.243Z,3.30
2022-12-04T07:59:06.602Z,3.30
2022-12-04T08:01:52.098Z,3.30
2022-12-04T08:04:37.984Z,3.30
2022-12-04T08:07:23.481Z,3.30
2022-12-04T08:10:09.979Z,3.40
2022-12-04T08:12:55.282Z,3.40
2022-12-04T08:15:40.654Z,3.40
2022-12-04T08:18:26.205Z,3.40
2022-12-04T08:21:14.156Z,3.50
2022-12-04T08:24:00.689Z,3.50
2022-12-04T08:26:46.280Z,3.60
2022-12-04T08:29:31.693Z,3.60
2022-12-04T08:32:17.062Z,3.60
2022-12-04T08:35:02.309Z,3.60
2022-12-04T08:37:47.709Z,3.60
2022-12-04T08:40:33.273Z,3.60
2022-12-04T08:43:18.425Z,3.70
2022-12-04T08:46:06.672Z,3.70
2022-12-04T08:48:52.258Z,3.60
2022-12-04T08:51:37.717Z,3.60
2022-12-04T08:54:23.244Z,3.60
2022-12-04T08:57:08.608Z,3.50
2022-12-04T08:59:54.313Z,3.50
2022-12-04T09:02:39.815Z,3.60
2022-12-04T09:05:25.231Z,3.70
2022-12-04T09:08:10.818Z,3.70
2022-12-04T09:11:01.905Z,3.70
2022-12-04T09:13:47.689Z,3.70
2022-12-04T09:16:33.021Z,3.70
2022-12-04T09:19:19.413Z,3.80
2022-12-04T09:22:04.913Z,3.80
2022-12-04T09:24:50.301Z,3.80
2022-12-04T09:27:37.704Z,3.90
2022-12-04T09:30:23.391Z,3.90
2022-12-04T09:33:08.870Z,4.00
2022-12-04T09:35:54.498Z,4.10
2022-12-04T09:38:39.886Z,4.20
2022-12-04T09:42:07.037Z,4.30
2022-12-04T09:45:03.865Z,4.40
2022-12-04T09:47:53.241Z,4.50
2022-12-04T09:50:43.498Z,4.60
2022-12-04T09:53:43.790Z,4.70
2022-12-04T09:56:30.997Z,4.80
2022-12-04T09:59:22.203Z,4.90
2022-12-04T10:02:35.573Z,5.00
2022-12-04T10:05:26.148Z,5.30
2022-12-04T10:08:31.839Z,5.70
2022-12-04T10:11:48.533Z,5.90
2022-12-04T10:14:50.634Z,6.20
2022-12-04T10:17:59.524Z,6.50
2022-12-04T10:21:13.664Z,6.80
2022-12-04T10:24:23.865Z,6.90
2022-12-04T10:27:18.742Z,6.80
2022-12-04T10:30:14.007Z,6.90
2022-12-04T10:33:13.673Z,7.20
2022-12-04T10:35:59.477Z,7.50
2022-12-04T10:39:18.060Z,7.70
2022-12-04T10:42:28.106Z,7.90
2022-12-04T10:45:13.432Z,7.80
2022-12-04T10:47:58.718Z,7.60
2022-12-04T10:50:44.285Z,7.50
2022-12-04T10:53:36.880Z,7.40
2022-12-04T10:56:24.298Z,7.70
2022-12-04T10:59:15.828Z,8.00
2022-12-04T11:02:23.802Z,8.10
2022-12-04T11:05:23.583Z,8.20
2022-12-04T11:08:23.705Z,8.30
2022-12-04T11:11:13.182Z,8.40
2022-12-04T11:14:16.202Z,8.60
2022-12-04T11:17:07.013Z,8.80
2022-12-04T11:20:18.331Z,9.10
2022-12-04T11:23:05.200Z,8.90
2022-12-04T11:25:53.397Z,8.70
2022-12-04T11:28:42.379Z,8.80
2022-12-04T11:31:29.999Z,8.90
2022-12-04T11:34:21.265Z,8.90
2022-12-04T11:37:18.522Z,9.00
2022-12-04T11:40:14.384Z,9.10
2022-12-04T11:43:12.285Z,9.10
2022-12-04T11:46:07.234Z,9.20
2022-12-04T11:48:53.236Z,9.30
2022-12-04T11:52:21.968Z,9.40
2022-12-04T11:55:38.160Z,9.50
2022-12-04T11:58:56.042Z,9.60
2022-12-04T12:01:57.757Z,9.50
2022-12-04T12:05:04.129Z,9.40
2022-12-04T12:08:11.762Z,9.20
2022-12-04T12:11:17.423Z,9.00
2022-12-04T12:14:14.496Z,8.90
2022-12-04T12:17:23.785Z,8.70
2022-12-04T12:20:42.795Z,8.70
2022-12-04T12:23:48.578Z,8.50
2022-12-04T12:27:13.675Z,8.40
2022-12-04T12:30:16.702Z,8.40
2022-12-04T12:33:17.355Z,8.30
2022-12-04T12:36:10.715Z,8.10
2022-12-04T12:39:01.288Z,8.10
2022-12-04T12:41:56.157Z,8.20
2022-12-04T12:44:50.265Z,8.20
2022-12-04T12:47:42.496Z,8.20
2022-12-04T12:50:47.601Z,8.20
2022-12-04T12:53:40.810Z,8.30
2022-12-04T12:56:35.392Z,8.20
2022-12-04T12:59:25.342Z,8.20
2022-12-04T13:02:29.570Z,8.10
2022-12-04T13:05:21.164Z,8.00
2022-12-04T13:08:29.631Z,7.90
2022-12-04T13:11:24.126Z,8.00
2022-12-04T13:14:13.110Z,8.10
2022-12-04T13:17:03.045Z,8.10
2022-12-04T13:19:53.891Z,8.10
2022-12-04T13:23:02.486Z,8.00
2022-12-04T13:25:50.733Z,7.90
2022-12-04T13:28:57.716Z,7.80
2022-12-04T13:31:57.251Z,7.80
2022-12-04T13:35:05.324Z,7.60
2022-12-04T13:38:38.568Z,7.60
2022-12-04T13:41:24.865Z,7.60
2022-12-04T13:44:14.576Z,7.70
2022-12-04T13:47:01.848Z,8.00
2022-12-04T13:49:46.824Z,8.30
2022-12-04T13:52:40.753Z,8.40
2022-12-04T13:55:27.786Z,8.40
2022-12-04T13:58:13.254Z,8.20
2022-12-04T14:01:03.255Z,8.10
2022-12-04T14:03:50.358Z,8.10
2022-12-04T14:06:41.123Z,8.20
2022-12-04T14:09:46.417Z,8.20
2022-12-04T14:12:39.619Z,8.20
2022-12-04T14:15:26.848Z,8.30
2022-12-04T14:18:12.488Z,8.30
2022-12-04T14:21:05.332Z,8.30
2022-12-04T14:23:51.411Z,8.30
2022-12-04T14:29:54.600Z,8.50
2022-12-04T14:32:41.110Z,8.50
2022-12-04T14:35:27.865Z,8.40
2022-12-04T14:38:16.763Z,8.30
2022-12-04T14:41:03.251Z,8.20
2022-12-04T14:43:50.255Z,8.10
2022-12-04T14:46:35.608Z,8.00
2022-12-04T14:49:26.135Z,7.90
2022-12-04T14:52:15.143Z,7.90
2022-12-04T14:55:19.508Z,7.70
2022-12-04T14:58:34.662Z,7.70
2022-12-04T15:01:27.078Z,7.50
2022-12-04T15:04:14.705Z,7.40
2022-12-04T15:07:01.052Z,7.40
2022-12-04T15:10:11.837Z,7.30
2022-12-04T15:12:57.161Z,7.20
2022-12-04T15:15:46.094Z,7.10
2022-12-04T15:18:35.387Z,7.10
2022-12-04T15:21:24.781Z,6.90
2022-12-04T15:24:11.393Z,6.90
2022-12-04T15:26:56.649Z,6.80
2022-12-04T15:29:48.158Z,6.80
2022-12-04T15:32:33.544Z,6.70
2022-12-04T15:35:22.388Z,6.60
2022-12-04T15:38:10.512Z,6.60
2022-12-04T15:40:56.827Z,6.60
2022-12-04T15:43:42.798Z,6.50
2022-12-04T15:46:33.214Z,6.50
2022-12-04T15:49:19.597Z,6.50
2022-12-04T15:52:06.874Z,6.50
2022-12-04T15:55:01.698Z,6.40
2022-12-04T15:57:51.576Z,6.40
2022-12-04T16:00:37.959Z,6.40
2022-12-04T16:03:23.224Z,6.40
2022-12-04T16:06:14.738Z,6.40
2022-12-04T16:09:01.389Z,6.40
2022-12-04T16:11:46.727Z,6.30
2022-12-04T16:14:31.980Z,6.40
2022-12-04T16:17:17.328Z,6.30
2022-12-04T16:20:04.394Z,6.30
2022-12-04T16:22:51.252Z,6.20
2022-12-04T16:25:36.620Z,6.20
2022-12-04T16:28:21.812Z,6.10
2022-12-04T16:31:07.555Z,6.10
2022-12-04T16:33:52.715Z,6.20
2022-12-04T16:36:37.833Z,6.10
2022-12-04T16:39:22.833Z,6.10
2022-12-04T16:42:14.137Z,6.10
2022-12-04T16:44:59.535Z,6.10
2022-12-04T16:47:45.394Z,6.10
2022-12-04T16:50:30.416Z,6.00
2022-12-04T16:53:20.874Z,6.00
2022-12-04T16:56:06.324Z,6.00
2022-12-04T16:58:51.157Z,6.00
2022-12-04T17:01:38.575Z,6.10
2022-12-04T17:04:24.069Z,6.10
2022-12-04T17:07:09.498Z,6.10
2022-12-04T17:09:54.557Z,6.10
2022-12-04T17:12:40.152Z,6.10
2022-12-04T17:15:25.348Z,6.10
2022-12-04T17:18:13.948Z,6.10
2022-12-04T17:21:04.469Z,6.10
2022-12-04T17:23:49.815Z,6.10
2022-12-04T17:26:34.871Z,6.20
2022-12-04T17:29:19.684Z,6.10
2022-12-04T17:32:04.985Z,6.10
2022-12-04T17:34:51.968Z,6.10
2022-12-04T17:37:38.389Z,6.20
2022-12-04T17:40:23.735Z,6.20
2022-12-04T17:43:08.777Z,6.20
2022-12-04T17:45:54.029Z,6.30
2022-12-04T17:48:39.569Z,6.30
2022-12-04T17:51:25.045Z,6.30
2022-12-04T17:54:10.672Z,6.30
2022-12-04T17:56:57.962Z,6.30
2022-12-04T17:59:43.529Z,6.30
2022-12-04T18:02:28.922Z,6.20
2022-12-04T18:05:17.000Z,6.20
2022-12-04T18:08:02.024Z,6.20
2022-12-04T18:10:47.079Z,6.20
2022-12-04T18:13:32.181Z,6.20
2022-12-04T18:16:17.448Z,6.10
2022-12-04T18:19:04.008Z,6.10
2022-12-04T18:21:49.478Z,6.20
2022-12-04T18:24:34.882Z,6.10
2022-12-04T18:27:20.206Z,6.10
2022-12-04T18:30:05.796Z,6.10
2022-12-04T18:32:53.903Z,6.20
2022-12-04T18:35:39.179Z,6.20
2022-12-04T18:38:24.991Z,6.20
2022-12-04T18:41:11.353Z,6.20
2022-12-04T18:43:57.219Z,6.10
2022-12-04T18:46:42.505Z,6.10
2022-12-04T18:49:27.523Z,6.10
2022-12-04T18:52:12.646Z,6.20
2022-12-04T18:54:57.692Z,6.10
2022-12-04T18:57:42.861Z,6.10
2022-12-04T19:00:27.799Z,6.10
2022-12-04T19:03:13.219Z,6.20
2022-12-04T19:05:58.128Z,6.30
2022-12-04T19:08:43.706Z,6.10
2022-12-04T19:11:29.236Z,6.30
2022-12-04T19:14:22.653Z,6.90
2022-12-04T19:17:09.054Z,7.30
2022-12-04T19:19:54.931Z,7.00
2022-12-04T19:22:40.545Z,6.80
2022-12-04T19:25:25.512Z,6.60
2022-12-04T19:28:10.527Z,6.50
2022-12-04T19:30:55.813Z,6.50
2022-12-04T19:33:41.806Z,6.40
2022-12-04T19:36:28.430Z,6.30
2022-12-04T19:39:13.545Z,6.30
2022-12-04T19:41:58.616Z,6.20
2022-12-04T19:44:48.766Z,6.20
2022-12-04T19:47:34.297Z,6.20
2022-12-04T19:50:19.375Z,6.20
2022-12-04T19:53:04.332Z,6.20
2022-12-04T19:55:49.409Z,6.20
2022-12-04T19:58:35.380Z,6.10
2022-12-04T20:01:21.758Z,6.10
2022-12-04T20:04:08.182Z,6.10
2022-12-04T20:06:53.538Z,6.10
2022-12-04T20:09:38.656Z,6.10
2022-12-04T20:12:24.414Z,6.20
2022-12-04T20:15:09.965Z,6.20
2022-12-04T20:17:55.204Z,6.10
2022-12-04T20:20:42.840Z,6.20
2022-12-04T20:23:28.481Z,6.20
2022-12-04T20:26:14.335Z,6.20
2022-12-04T20:29:00.028Z,6.20
2022-12-04T20:31:46.260Z,6.20
2022-12-04T20:34:31.525Z,6.20
2022-12-04T20:37:16.813Z,6.20
2022-12-04T20:40:56.600Z,6.20
2022-12-04T20:43:45.538Z,5.70
2022-12-04T20:46:32.488Z,6.20
2022-12-04T20:49:22.064Z,6.20
2022-12-04T20:52:07.780Z,6.20
2022-12-04T20:54:52.817Z,6.20
2022-12-04T20:57:37.884Z,6.20
2022-12-04T21:00:23.181Z,6.10
2022-12-04T21:03:08.203Z,6.10
2022-12-04T21:05:53.335Z,6.20
2022-12-04T21:08:53.481Z,6.20
2022-12-04T21:11:39.890Z,6.20
2022-12-04T21:14:45.333Z,6.20
2022-12-04T21:17:30.618Z,6.10
2022-12-04T21:20:15.812Z,6.10
2022-12-04T21:23:00.958Z,6.10
2022-12-04T21:25:45.980Z,6.10
2022-12-04T21:28:31.274Z,6.10
2022-12-04T21:31:16.487Z,6.20
2022-12-04T21:34:02.818Z,6.20
2022-12-04T21:36:48.117Z,6.20
2022-12-04T21:39:33.127Z,6.20
2022-12-04T21:42:30.197Z,6.10
2022-12-04T21:45:15.298Z,6.10
2022-12-04T21:48:00.432Z,6.20
2022-12-04T21:50:45.446Z,6.20
2022-12-04T21:53:30.482Z,6.20
2022-12-04T21:56:15.723Z,6.20
2022-12-04T21:59:01.056Z,6.20
2022-12-04T22:01:46.181Z,6.20
2022-12-04T22:04:31.164Z,6.10
2022-12-04T22:07:16.321Z,6.20
2022-12-04T22:10:07.066Z,6.20
2022-12-04T22:12:55.666Z,6.20
2022-12-04T22:15:41.823Z,6.20
2022-12-04T22:18:26.614Z,6.20
2022-12-04T22:21:12.785Z,6.20
2022-12-04T22:23:58.986Z,6.20
2022-12-04T22:26:43.881Z,6.20
2022-12-04T22:32:34.399Z,6.30
2022-12-04T22:35:19.642Z,6.30
2022-12-04T22:38:05.019Z,6.30
2022-12-04T22:40:49.957Z,6.30
2022-12-04T22:43:40.527Z,6.20
2022-12-04T22:46:26.208Z,6.30
2022-12-04T22:49:11.280Z,6.30
2022-12-04T22:51:56.214Z,6.30
2022-12-04T22:54:41.627Z,6.30
2022-12-04T22:57:27.759Z,6.30
2022-12-04T23:00:13.015Z,6.30
2022-12-04T23:02:58.532Z,6.30
2022-12-04T23:05:43.433Z,6.30
2022-12-04T23:08:28.694Z,6.30
2022-12-04T23:11:15.175Z,6.30
2022-12-04T23:14:01.344Z,6.30
2022-12-04T23:16:46.619Z,6.30
2022-12-04T23:19:32.481Z,6.30
2022-12-04T23:22:17.508Z,6.30
2022-12-04T23:25:02.424Z,6.30
2022-12-04T23:27:47.996Z,6.30
2022-12-04T23:30:36.579Z,6.30
2022-12-04T23:33:21.705Z,6.30
2022-12-04T23:36:07.240Z,6.30
2022-12-04T23:38:52.238Z,6.30
2022-12-04T23:41:37.304Z,6.30
2022-12-04T23:44:22.492Z,6.30
2022-12-04T23:47:07.445Z,6.30
2022-12-04T23:49:52.921Z,6.30
2022-12-04T23:52:37.873Z,6.40
2022-12-04T23:55:22.874Z,6.40
2022-12-04T23:58:07.852Z,6.30
